Time;durP1;ratioP1;P1;durP2;ratioP2;P2;SDS_P1;SDS_P2;PMS_P1;PMS_P2;Temp;Humidity;BMP_temperature;BMP_pressure;BME280_temperature;BME280_humidity;BME280_pressure;Samples;Min_cycle;Max_cycle;Signal;HPM_P1;HPM_P2
2023/09/17 00:01:08;;;;;;;12.67;11.57;;;;;;;18.99;100.00;99849.56;5022250;28;20229;-81
2023/09/17 00:03:33;;;;;;;12.90;11.80;;;;;;;18.87;100.00;99853.31;5034316;28;20206;-82
2023/09/17 00:05:59;;;;;;;13.37;12.17;;;;;;;18.87;100.00;99848.09;5031716;28;20198;-82
2023/09/17 00:08:24;;;;;;;12.60;11.37;;;;;;;18.87;100.00;99853.31;5032096;28;20174;-82
2023/09/17 00:10:49;;;;;;;12.97;11.47;;;;;;;18.86;100.00;99855.06;5021254;28;20230;-81
2023/09/17 00:13:15;;;;;;;12.97;11.77;;;;;;;18.78;100.00;99849.78;5031340;28;20190;-81
2023/09/17 00:15:41;;;;;;;11.67;10.57;;;;;;;18.82;100.00;99848.50;5020323;28;20186;-81
2023/09/17 00:18:06;;;;;;;13.47;11.07;;;;;;;18.72;100.00;99850.34;5031706;28;20268;-80
2023/09/17 00:20:32;;;;;;;11.30;10.37;;;;;;;18.70;100.00;99850.50;5012736;28;20255;-80
2023/09/17 00:22:59;;;;;;;11.33;10.27;;;;;;;18.70;100.00;99849.66;5031222;28;20202;-81
2023/09/17 00:25:25;;;;;;;10.70;9.80;;;;;;;18.71;100.00;99854.72;5032875;28;20178;-79
2023/09/17 00:27:50;;;;;;;12.17;10.97;;;;;;;18.64;100.00;99850.22;5031237;28;20268;-81
2023/09/17 00:30:16;;;;;;;12.83;11.33;;;;;;;18.60;100.00;99849.69;5025277;28;20280;-82
2023/09/17 00:32:41;;;;;;;12.07;10.87;;;;;;;18.60;100.00;99841.06;5065973;28;20209;-82
2023/09/17 00:35:07;;;;;;;12.63;11.23;;;;;;;18.62;100.00;99839.94;5050980;28;20686;-81
2023/09/17 00:37:32;;;;;;;12.50;11.47;;;;;;;18.54;100.00;99839.81;5048812;28;20621;-81
2023/09/17 00:39:58;;;;;;;12.40;11.10;;;;;;;18.55;100.00;99838.88;5050892;28;20632;-82
2023/09/17 00:42:23;;;;;;;11.53;10.57;;;;;;;18.57;100.00;99841.31;5040867;28;20328;-82
2023/09/17 00:44:49;;;;;;;13.20;11.77;;;;;;;18.54;100.00;99829.41;5038060;28;20308;-80
2023/09/17 00:47:14;;;;;;;12.40;11.37;;;;;;;18.53;100.00;99838.19;5050833;28;20208;-82
2023/09/17 00:49:40;;;;;;;11.80;10.70;;;;;;;18.54;100.00;99832.84;5050562;28;20181;-81
2023/09/17 00:52:15;;;;;;;12.57;11.37;;;;;;;18.48;100.00;99836.03;5041846;28;20224;-82
2023/09/17 00:54:41;;;;;;;12.93;11.70;;;;;;;18.51;100.00;99845.34;5032574;28;20190;-82
2023/09/17 00:57:09;;;;;;;14.23;11.53;;;;;;;18.44;100.00;99842.47;5032271;28;20806;-80
2023/09/17 00:59:35;;;;;;;12.80;11.53;;;;;;;18.34;100.00;99839.06;5041047;28;20221;-81
2023/09/17 01:02:01;;;;;;;12.27;11.10;;;;;;;18.34;100.00;99852.91;5025168;28;20335;-80
2023/09/17 01:04:27;;;;;;;12.47;10.93;;;;;;;18.32;100.00;99843.59;5051251;28;20755;-81
2023/09/17 01:06:55;;;;;;;11.80;10.70;;;;;;;18.37;100.00;99838.81;5048994;28;20237;-81
2023/09/17 01:09:21;;;;;;;11.53;10.43;;;;;;;18.32;100.00;99841.81;5050271;28;20185;-81
2023/09/17 01:11:48;;;;;;;12.03;10.97;;;;;;;18.32;100.00;99838.38;5054166;28;20217;-80
2023/09/17 01:14:13;;;;;;;11.70;10.60;;;;;;;18.29;100.00;99847.28;5053199;28;20189;-83
2023/09/17 01:16:45;;;;;;;11.83;10.73;;;;;;;18.21;100.00;99845.41;5049431;28;20178;-82
2023/09/17 01:19:18;;;;;;;11.23;10.33;;;;;;;18.21;100.00;99849.78;5050081;28;20551;-82
2023/09/17 01:22:09;;;;;;;11.17;9.80;;;;;;;18.14;100.00;99849.50;5056069;28;20620;-82
2023/09/17 01:25:00;;;;;;;10.73;9.63;;;;;;;18.05;100.00;99845.97;5083941;28;20272;-81
2023/09/17 01:27:25;;;;;;;11.33;10.30;;;;;;;18.14;100.00;99846.91;5056965;28;20610;-79
2023/09/17 01:29:53;;;;;;;12.60;11.60;;;;;;;18.08;100.00;99844.84;5057756;28;20264;-79
2023/09/17 01:32:19;;;;;;;12.17;11.00;;;;;;;17.97;100.00;99842.41;5046398;28;20240;-80
2023/09/17 01:34:49;;;;;;;11.57;10.37;;;;;;;18.08;100.00;99833.63;5055931;28;20187;-80
2023/09/17 01:37:23;;;;;;;11.73;10.73;;;;;;;18.11;100.00;99839.38;5056192;28;20181;-81
2023/09/17 01:39:54;;;;;;;11.07;10.07;;;;;;;18.14;100.00;99843.50;5055719;28;20176;-81
2023/09/17 01:42:21;;;;;;;10.97;9.97;;;;;;;18.14;100.00;99846.91;5064695;28;20786;-81
2023/09/17 01:44:48;;;;;;;9.93;9.10;;;;;;;18.14;100.00;99846.91;5056853;28;20169;-80
2023/09/17 01:47:15;;;;;;;11.20;10.10;;;;;;;18.17;100.00;99841.44;5056931;28;20561;-81
2023/09/17 01:49:41;;;;;;;10.80;9.90;;;;;;;18.22;100.00;99846.19;5063127;28;20219;-80
2023/09/17 01:52:08;;;;;;;11.30;10.20;;;;;;;18.20;100.00;99851.56;5051298;28;20228;-80
2023/09/17 01:54:34;;;;;;;12.33;9.83;;;;;;;18.22;100.00;99848.81;5069925;28;20169;-81
2023/09/17 01:56:59;;;;;;;11.33;10.17;;;;;;;18.21;100.00;99860.22;5068300;28;20193;-82
2023/09/17 01:59:25;;;;;;;10.63;9.80;;;;;;;18.18;100.00;99860.47;5063477;28;20620;-80
2023/09/17 02:01:50;;;;;;;11.10;10.10;;;;;;;18.24;100.00;99859.91;5051538;28;20270;-79
2023/09/17 02:04:16;;;;;;;10.30;9.47;;;;;;;18.31;100.00;99854.97;5055459;28;20205;-80
2023/09/17 02:06:41;;;;;;;11.37;10.33;;;;;;;18.30;100.00;99858.53;5055984;28;20215;-79
2023/09/17 02:09:08;;;;;;;10.87;9.87;;;;;;;18.35;100.00;99851.13;5060278;28;20602;-81
2023/09/17 02:11:36;;;;;;;11.00;9.90;;;;;;;18.36;100.00;99855.38;5044494;28;20257;-81
2023/09/17 02:14:02;;;;;;;11.10;10.07;;;;;;;18.33;100.00;99843.47;5030463;28;20181;-80
2023/09/17 02:16:28;;;;;;;10.17;9.17;;;;;;;18.35;100.00;99854.53;5043942;28;20185;-80
2023/09/17 02:18:54;;;;;;;10.77;9.67;;;;;;;18.29;100.00;99851.69;5044178;28;20180;-80
2023/09/17 02:21:19;;;;;;;11.10;9.27;;;;;;;18.36;100.00;99850.19;5058072;28;20684;-81
2023/09/17 02:23:45;;;;;;;10.83;9.77;;;;;;;18.35;100.00;99851.94;5049429;28;20189;-80
2023/09/17 02:26:11;;;;;;;9.80;9.00;;;;;;;18.42;100.00;99852.22;5056772;28;20205;-81
2023/09/17 02:28:36;;;;;;;10.60;9.60;;;;;;;18.42;100.00;99856.59;5056565;28;20193;-81
2023/09/17 02:31:02;;;;;;;9.27;8.57;;;;;;;18.48;100.00;99859.47;5040230;28;20676;-82
2023/09/17 02:33:29;;;;;;;10.37;9.47;;;;;;;18.51;100.00;99858.34;5048211;28;20174;-82
2023/09/17 02:35:55;;;;;;;10.63;9.63;;;;;;;18.51;100.00;99859.16;5053564;28;20185;-82
2023/09/17 02:38:21;;;;;;;10.03;9.03;;;;;;;18.53;100.00;99857.25;5051219;28;20192;-81
2023/09/17 02:40:47;;;;;;;10.43;9.60;;;;;;;18.54;100.00;99848.47;5048780;28;20267;-82
2023/09/17 02:43:13;;;;;;;10.30;9.37;;;;;;;18.53;100.00;99853.81;5062290;28;20248;-82
2023/09/17 02:45:39;;;;;;;9.70;8.83;;;;;;;18.39;100.00;99852.47;5047519;28;20182;-81
2023/09/17 02:48:04;;;;;;;10.67;9.00;;;;;;;18.32;100.00;99859.22;5060545;28;20256;-82
2023/09/17 02:50:29;;;;;;;9.30;8.40;;;;;;;18.26;100.00;99858.00;5028754;28;20312;-81
2023/09/17 02:52:55;;;;;;;10.57;9.67;;;;;;;18.33;100.00;99850.44;5040402;28;20174;-80
2023/09/17 02:55:22;;;;;;;9.23;8.43;;;;;;;18.45;100.00;99856.31;5053399;28;20518;-81
2023/09/17 02:57:49;;;;;;;9.67;8.77;;;;;;;18.50;100.00;99854.91;5040892;28;20208;-79
2023/09/17 03:00:17;;;;;;;10.23;9.33;;;;;;;18.54;100.00;99848.47;5044163;28;20318;-81
2023/09/17 03:02:47;;;;;;;9.23;8.50;;;;;;;18.46;100.00;99857.97;5061851;28;20284;-79
2023/09/17 03:05:12;;;;;;;9.43;8.53;;;;;;;18.42;100.00;99852.22;5053995;28;20186;-80
2023/09/17 03:07:38;;;;;;;13.20;9.90;;;;;;;18.49;100.00;99849.84;5046035;28;20229;-79
2023/09/17 03:10:10;;;;;;;11.47;10.37;;;;;;;18.48;100.00;99849.06;5041746;28;20185;-80
2023/09/17 03:12:36;;;;;;;9.80;8.83;;;;;;;18.52;100.00;99845.19;5059347;28;20214;-78
2023/09/17 03:15:05;;;;;;;10.10;9.10;;;;;;;18.60;100.00;99847.06;5050355;28;20228;-78
2023/09/17 03:17:30;;;;;;;10.97;10.07;;;;;;;18.54;100.00;99847.66;5052989;28;20182;-79
2023/09/17 03:19:55;;;;;;;9.97;9.07;;;;;;;18.56;100.00;99850.94;5049558;28;20255;-79
2023/09/17 03:22:20;;;;;;;9.80;8.90;;;;;;;18.53;100.00;99848.59;5032287;28;20239;-79
2023/09/17 03:24:46;;;;;;;9.37;8.57;;;;;;;18.59;100.00;99849.84;5052299;28;20216;-79
2023/09/17 03:27:11;;;;;;;10.20;9.37;;;;;;;18.63;100.00;99845.97;5054118;28;20177;-78
2023/09/17 03:29:36;;;;;;;9.70;8.90;;;;;;;18.53;100.00;99844.22;5053418;28;20239;-80
2023/09/17 03:32:02;;;;;;;9.87;9.03;;;;;;;18.51;100.00;99843.53;5028920;28;20632;-79
2023/09/17 03:34:27;;;;;;;10.97;10.07;;;;;;;18.57;100.00;99844.78;5066667;28;20268;-79
2023/09/17 03:36:53;;;;;;;10.17;9.17;;;;;;;18.60;100.00;99841.88;5054357;28;20178;-78
2023/09/17 03:39:18;;;;;;;10.03;9.13;;;;;;;18.61;100.00;99847.91;5051404;28;20190;-79
2023/09/17 03:41:43;;;;;;;10.50;9.40;;;;;;;18.60;100.00;99848.88;5049544;28;20228;-79
2023/09/17 03:44:09;;;;;;;10.13;9.20;;;;;;;18.64;100.00;99845.84;5039712;28;20233;-80
2023/09/17 03:46:36;;;;;;;9.50;8.80;;;;;;;18.63;100.00;99836.38;5032608;28;20295;-80
2023/09/17 03:49:02;;;;;;;10.70;9.80;;;;;;;18.61;100.00;99840.09;5059421;28;20180;-80
2023/09/17 03:51:28;;;;;;;10.40;9.40;;;;;;;18.58;100.00;99846.41;5035836;28;20311;-80
2023/09/17 03:53:54;;;;;;;9.50;8.60;;;;;;;18.47;100.00;99850.00;5047165;28;20276;-80
2023/09/17 03:56:20;;;;;;;9.37;8.67;;;;;;;18.51;100.00;99847.94;5051970;28;20189;-80
2023/09/17 03:58:45;;;;;;;10.27;9.37;;;;;;;18.56;100.00;99853.53;5064227;28;20276;-80
2023/09/17 04:01:13;;;;;;;10.80;9.60;;;;;;;18.62;100.00;99852.13;5043348;28;20763;-80
2023/09/17 04:03:38;;;;;;;9.73;8.87;;;;;;;18.63;100.00;99845.97;5046431;28;20259;-80
2023/09/17 04:06:04;;;;;;;10.20;9.20;;;;;;;18.67;100.00;99847.34;5060118;28;20557;-80
2023/09/17 04:08:30;;;;;;;9.63;8.83;;;;;;;18.66;100.00;99845.69;5069800;28;20184;-80
2023/09/17 04:10:55;;;;;;;10.03;9.13;;;;;;;18.48;100.00;99843.84;5054582;28;20263;-80
2023/09/17 04:13:20;;;;;;;9.77;8.67;;;;;;;18.54;100.00;99860.66;5047753;28;20236;-81
2023/09/17 04:15:49;;;;;;;9.93;9.03;;;;;;;18.58;100.00;99845.59;5052694;28;20256;-78
2023/09/17 04:18:14;;;;;;;9.60;8.50;;;;;;;18.57;100.00;99846.53;5051130;28;20268;-80
2023/09/17 04:20:43;;;;;;;8.90;8.10;;;;;;;18.56;100.00;99848.34;5044105;28;20311;-79
2023/09/17 04:23:09;;;;;;;10.23;8.90;;;;;;;18.58;100.00;99848.19;5038404;28;20596;-78
2023/09/17 04:25:35;;;;;;;10.00;9.07;;;;;;;18.60;100.00;99848.88;5057388;28;20176;-79
2023/09/17 04:28:02;;;;;;;10.80;9.90;;;;;;;18.51;100.00;99856.56;5062162;28;20576;-79
2023/09/17 04:30:27;;;;;;;9.23;8.43;;;;;;;18.51;100.00;99850.53;5049469;28;20759;-80
2023/09/17 04:32:54;;;;;;;10.60;9.50;;;;;;;18.49;100.00;99852.47;5060758;28;20263;-80
2023/09/17 04:35:20;;;;;;;11.50;10.60;;;;;;;18.44;100.00;99846.84;5051215;28;20181;-81
2023/09/17 04:37:47;;;;;;;11.10;10.00;;;;;;;18.41;100.00;99858.38;5046528;28;20190;-77
2023/09/17 04:40:13;;;;;;;18.40;11.37;;;;;;;18.32;100.00;99860.03;5054078;28;20185;-78
2023/09/17 04:42:40;;;;;;;11.97;10.77;;;;;;;18.37;100.00;99860.44;5068246;28;20209;-79
2023/09/17 04:45:06;;;;;;;12.57;11.37;;;;;;;18.37;100.00;99862.25;5051200;28;20185;-80
2023/09/17 04:47:36;;;;;;;10.97;10.07;;;;;;;18.32;100.00;99856.59;5050796;28;20200;-80
2023/09/17 04:50:03;;;;;;;11.97;10.87;;;;;;;18.23;100.00;99860.88;5060597;28;20177;-80
2023/09/17 04:52:28;;;;;;;11.27;10.27;;;;;;;18.20;100.00;99854.16;5042818;28;20586;-81
2023/09/17 04:54:53;;;;;;;12.20;11.10;;;;;;;18.20;100.00;99856.75;5051874;28;20182;-79
2023/09/17 04:57:19;;;;;;;12.40;11.20;;;;;;;18.14;100.00;99861.72;5049551;28;20632;-78
2023/09/17 04:59:45;;;;;;;13.50;12.20;;;;;;;18.20;100.00;99867.19;5070025;28;20648;-78
2023/09/17 05:02:10;;;;;;;11.83;10.80;;;;;;;18.21;100.00;99863.63;5041821;28;20230;-78
2023/09/17 05:04:35;;;;;;;14.07;12.03;;;;;;;18.27;100.00;99867.47;5051819;28;20185;-78
2023/09/17 05:07:01;;;;;;;12.20;11.20;;;;;;;18.31;100.00;99868.81;5037919;28;20201;-78
2023/09/17 05:09:26;;;;;;;12.57;10.87;;;;;;;18.34;100.00;99865.91;5050521;28;20829;-78
2023/09/17 05:11:52;;;;;;;13.37;12.20;;;;;;;18.32;100.00;99865.25;5042233;28;20231;-78
2023/09/17 05:14:17;;;;;;;12.90;11.80;;;;;;;18.32;100.00;99872.22;5038382;28;20320;-77
2023/09/17 05:16:43;;;;;;;13.37;12.17;;;;;;;18.37;100.00;99878.66;5027058;28;20186;-78
2023/09/17 05:19:08;;;;;;;13.23;11.90;;;;;;;18.40;100.00;99874.97;5050089;28;20186;-81
2023/09/17 05:21:33;;;;;;;13.43;12.13;;;;;;;18.42;100.00;99869.59;5053812;28;20290;-81
2023/09/17 05:23:59;;;;;;;13.33;12.23;;;;;;;18.45;100.00;99872.75;5053388;28;20193;-80
2023/09/17 05:26:25;;;;;;;13.73;12.57;;;;;;;18.44;100.00;99878.09;5048365;28;20686;-80
2023/09/17 05:28:51;;;;;;;12.40;11.40;;;;;;;18.37;100.00;99880.47;5050332;28;20169;-80
2023/09/17 05:31:16;;;;;;;13.67;12.47;;;;;;;18.43;100.00;99895.53;5038650;28;20230;-80
2023/09/17 05:33:41;;;;;;;12.90;11.67;;;;;;;18.40;100.00;99890.59;5049276;28;20189;-80
2023/09/17 05:36:07;;;;;;;12.07;11.07;;;;;;;18.41;100.00;99894.84;5035529;28;20193;-80
2023/09/17 05:38:32;;;;;;;15.37;12.30;;;;;;;18.37;100.00;99896.91;5048537;28;20182;-80
2023/09/17 05:40:58;;;;;;;12.60;11.27;;;;;;;18.33;100.00;99892.94;5040393;28;20291;-79
2023/09/17 05:43:24;;;;;;;13.73;12.43;;;;;;;18.37;100.00;99903.91;5043084;28;20297;-81
2023/09/17 05:45:56;;;;;;;13.43;12.23;;;;;;;18.33;100.00;99900.75;5059796;28;20678;-80
2023/09/17 05:48:24;;;;;;;13.20;11.97;;;;;;;18.27;100.00;99903.91;5046843;28;20189;-80
2023/09/17 05:50:50;;;;;;;13.43;12.23;;;;;;;18.24;100.00;99904.16;5036580;28;20224;-80
2023/09/17 05:53:15;;;;;;;12.53;11.43;;;;;;;18.24;100.00;99901.56;5039712;28;20180;-80
2023/09/17 05:55:41;;;;;;;12.57;11.47;;;;;;;18.16;100.00;99911.84;5035803;28;20186;-81
2023/09/17 05:58:07;;;;;;;12.93;11.60;;;;;;;18.24;100.00;99914.59;5032369;28;20186;-80
2023/09/17 06:00:32;;;;;;;13.27;12.17;;;;;;;18.28;100.00;99918.53;5026075;28;20294;-82
2023/09/17 06:02:57;;;;;;;13.13;12.03;;;;;;;18.31;100.00;99923.50;5042971;28;20213;-81
2023/09/17 06:05:23;;;;;;;14.50;13.00;;;;;;;18.35;100.00;99926.63;5049917;28;20181;-81
2023/09/17 06:07:48;;;;;;;13.67;12.43;;;;;;;18.37;100.00;99922.13;5052653;28;20720;-81
2023/09/17 06:10:14;;;;;;;14.57;13.07;;;;;;;18.38;100.00;99926.34;5042008;28;20280;-80
2023/09/17 06:12:39;;;;;;;13.83;12.60;;;;;;;18.43;100.00;99926.78;5046928;28;20542;-82
2023/09/17 06:15:05;;;;;;;16.17;12.93;;;;;;;18.46;100.00;99921.28;5063681;28;20195;-83
2023/09/17 06:17:30;;;;;;;14.17;12.77;;;;;;;18.46;100.00;99928.28;5065256;28;20223;-83
2023/09/17 06:19:56;;;;;;;13.23;11.97;;;;;;;18.25;100.00;99924.03;5052136;28;20556;-76
2023/09/17 06:22:21;;;;;;;12.60;11.53;;;;;;;18.30;100.00;99923.63;5051388;28;20226;-80
2023/09/17 06:24:46;;;;;;;12.63;11.53;;;;;;;18.42;100.00;99934.72;5051548;28;20185;-81
2023/09/17 06:27:11;;;;;;;14.10;11.73;;;;;;;18.43;100.00;99921.56;5044196;28;20644;-79
2023/09/17 06:29:37;;;;;;;12.97;11.77;;;;;;;18.63;100.00;99932.78;5059572;28;20354;-79
2023/09/17 06:32:03;;;;;;;12.93;11.83;;;;;;;18.82;100.00;99925.88;5046027;28;20225;-80
2023/09/17 06:34:29;;;;;;;13.90;12.67;;;;;;;19.10;100.00;99929.38;5043116;28;20194;-78
2023/09/17 06:36:54;;;;;;;12.60;11.57;;;;;;;19.43;100.00;99924.53;5034691;28;20544;-81
2023/09/17 06:39:19;;;;;;;12.93;11.70;;;;;;;19.90;100.00;99928.81;5038545;28;20261;-83
2023/09/17 06:41:45;;;;;;;12.23;11.23;;;;;;;20.41;100.00;99913.41;5022011;28;20724;-83
2023/09/17 06:44:10;;;;;;;11.97;10.97;;;;;;;21.47;100.00;99921.16;5040813;28;20197;-75
2023/09/17 06:46:36;;;;;;;12.27;11.27;;;;;;;23.00;100.00;99907.59;5034636;28;20248;-75
2023/09/17 06:49:02;;;;;;;10.10;9.20;;;;;;;24.60;100.00;99909.66;5034648;28;20194;-76
2023/09/17 06:51:27;;;;;;;9.10;8.20;;;;;;;26.31;100.00;99905.91;5039130;28;20651;-76
2023/09/17 06:53:53;;;;;;;9.23;8.32;;;;;;;27.17;100.00;99912.69;5052104;28;20194;-76
2023/09/17 06:56:18;;;;;;;10.27;8.88;;;;;;;28.76;100.00;99914.09;5051695;28;20221;-76
2023/09/17 06:58:44;;;;;;;9.25;8.43;;;;;;;29.35;98.45;99914.06;5053421;28;20656;-77
2023/09/17 07:01:09;;;;;;;10.00;8.52;;;;;;;29.34;95.45;99915.91;5039635;28;20262;-76
2023/09/17 07:03:34;;;;;;;9.23;8.43;;;;;;;29.29;97.31;99910.44;5045998;28;20205;-76
2023/09/17 07:05:59;;;;;;;8.38;7.75;;;;;;;30.46;89.72;99917.13;5051929;28;20526;-76
2023/09/17 07:08:25;;;;;;;8.90;7.93;;;;;;;30.58;88.65;99920.72;5052462;28;20272;-76
2023/09/17 07:10:51;;;;;;;10.00;9.02;;;;;;;29.87;91.99;99920.06;5043456;28;20225;-77
2023/09/17 07:13:17;;;;;;;9.93;9.07;;;;;;;30.88;86.14;99919.16;5038052;28;20538;-77
2023/09/17 07:15:45;;;;;;;8.88;8.20;;;;;;;31.51;82.72;99922.47;5041639;28;20184;-76
2023/09/17 07:18:12;;;;;;;8.88;8.07;;;;;;;30.87;83.93;99921.03;5039724;28;20236;-76
2023/09/17 07:20:37;;;;;;;11.07;8.93;;;;;;;29.36;94.76;99923.66;5041949;28;20662;-76
2023/09/17 07:23:03;;;;;;;10.43;9.15;;;;;;;29.20;95.73;99924.91;5049423;28;20267;-75
2023/09/17 07:25:28;;;;;;;10.23;8.85;;;;;;;29.89;92.36;99920.69;5041595;28;20217;-75
2023/09/17 07:27:53;;;;;;;10.15;9.25;;;;;;;30.29;89.24;99922.22;5037587;28;20556;-75
2023/09/17 07:30:19;;;;;;;9.23;8.43;;;;;;;31.01;86.56;99929.63;5016525;28;20562;-76
2023/09/17 07:32:44;;;;;;;9.20;8.48;;;;;;;31.79;79.55;99926.38;5062817;28;20174;-76
2023/09/17 07:35:09;;;;;;;9.32;8.43;;;;;;;32.18;76.31;99937.41;5042497;28;20231;-76
2023/09/17 07:37:34;;;;;;;8.90;8.23;;;;;;;32.07;70.67;99936.34;5039241;28;20269;-76
2023/09/17 07:40:02;;;;;;;10.70;9.70;;;;;;;28.38;99.29;99943.84;5043833;28;20667;-76
2023/09/17 07:42:27;;;;;;;10.10;9.20;;;;;;;29.52;95.31;99931.13;5038323;28;20235;-76
2023/09/17 07:44:53;;;;;;;10.85;8.43;;;;;;;30.60;88.08;99936.41;5064213;28;20177;-76
2023/09/17 07:47:19;;;;;;;10.45;9.48;;;;;;;31.22;82.27;99935.50;5066140;28;20273;-77
2023/09/17 07:49:45;;;;;;;10.57;9.40;;;;;;;29.35;93.61;99935.25;5071502;28;20502;-77
2023/09/17 07:52:11;;;;;;;10.57;8.43;;;;;;;30.83;85.63;99932.31;5028005;28;20233;-77
2023/09/17 07:54:41;;;;;;;10.32;8.10;;;;;;;30.73;86.00;99946.09;5051605;28;20192;-76
2023/09/17 07:57:07;;;;;;;8.80;7.82;;;;;;;31.52;79.71;99940.84;5052397;28;20558;-76
2023/09/17 07:59:32;;;;;;;7.90;7.15;;;;;;;32.01;78.14;99939.94;5051288;28;20178;-77
2023/09/17 08:01:58;;;;;;;7.25;6.53;;;;;;;32.13;74.29;99935.44;5043517;28;20297;-76
2023/09/17 08:04:24;;;;;;;5.78;5.38;;;;;;;33.28;65.47;99932.28;5051580;28;20572;-76
2023/09/17 08:06:50;;;;;;;6.60;5.78;;;;;;;32.60;64.16;99937.31;5052229;28;20209;-75
2023/09/17 08:09:16;;;;;;;6.03;5.20;;;;;;;33.25;61.37;99934.59;5051427;28;20276;-75
2023/09/17 08:11:42;;;;;;;5.70;5.10;;;;;;;33.43;58.59;99928.28;5054813;28;20227;-76
2023/09/17 08:14:08;;;;;;;5.25;4.43;;;;;;;32.59;62.79;99929.56;5047399;28;20188;-75
2023/09/17 08:16:34;;;;;;;6.38;4.20;;;;;;;33.51;60.75;99929.78;5035181;28;20546;-76
2023/09/17 08:18:59;;;;;;;4.20;3.70;;;;;;;34.12;51.19;99940.63;5033137;28;20235;-77
2023/09/17 08:21:24;;;;;;;4.82;3.53;;;;;;;30.59;69.75;99937.47;5036470;28;20265;-79
2023/09/17 08:23:50;;;;;;;6.90;3.75;;;;;;;31.80;65.93;99936.78;5046076;28;20585;-76
2023/09/17 08:26:16;;;;;;;6.68;3.25;;;;;;;32.52;59.59;99940.31;5035845;28;20284;-75
2023/09/17 08:28:42;;;;;;;5.20;3.42;;;;;;;30.73;74.40;99949.53;5031449;28;20208;-75
2023/09/17 08:31:07;;;;;;;3.97;3.38;;;;;;;28.95;83.64;99936.22;5041168;28;20713;-75
2023/09/17 08:33:33;;;;;;;3.63;3.10;;;;;;;28.82;88.48;99937.06;5038554;28;20197;-75
2023/09/17 08:35:59;;;;;;;4.28;2.95;;;;;;;28.65;87.51;99942.78;5047227;28;20554;-76
2023/09/17 08:38:24;;;;;;;6.45;3.13;;;;;;;27.85;90.42;99946.22;5042524;28;20588;-75
2023/09/17 08:40:50;;;;;;;3.22;2.92;;;;;;;27.41;94.50;99939.63;5043198;28;20224;-76
2023/09/17 08:43:16;;;;;;;4.35;2.63;;;;;;;29.63;83.85;99945.50;5060051;28;20196;-75
2023/09/17 08:45:42;;;;;;;3.45;2.45;;;;;;;30.71;69.16;99954.28;5069395;28;20224;-75
2023/09/17 08:48:08;;;;;;;5.75;2.97;;;;;;;33.11;53.27;99952.75;5051228;28;20259;-76
2023/09/17 08:50:35;;;;;;;7.25;2.90;;;;;;;34.19;45.75;99949.28;5056829;28;20239;-75
2023/09/17 08:53:02;;;;;;;4.97;3.35;;;;;;;31.43;55.44;99949.34;5047066;28;20267;-75
2023/09/17 08:55:28;;;;;;;4.53;3.10;;;;;;;33.73;48.98;99948.53;5034417;28;20548;-76
2023/09/17 08:58:14;;;;;;;5.30;2.80;;;;;;;34.37;44.24;99969.59;5070326;28;20280;-77
2023/09/17 09:00:46;;;;;;;6.32;3.03;;;;;;;34.81;44.42;99960.81;5045105;28;20229;-77
2023/09/17 09:03:14;;;;;;;3.88;2.60;;;;;;;35.76;40.30;99956.22;5041800;28;20244;-77
2023/09/17 09:05:40;;;;;;;4.63;2.90;;;;;;;34.85;42.72;99955.81;5066233;28;20169;-77
2023/09/17 09:08:08;;;;;;;7.47;3.42;;;;;;;35.66;41.37;99955.09;5058740;28;20185;-76
2023/09/17 09:10:33;;;;;;;4.28;3.50;;;;;;;33.99;46.18;99955.13;5057357;28;20232;-75
2023/09/17 09:13:00;;;;;;;3.20;3.00;;;;;;;34.79;46.61;99962.94;5058000;28;20495;-76
2023/09/17 09:15:26;;;;;;;5.15;3.95;;;;;;;34.83;45.68;99961.41;5053133;28;20181;-77
2023/09/17 09:17:54;;;;;;;4.78;2.97;;;;;;;37.04;38.97;99953.56;5051745;28;20177;-76
2023/09/17 09:20:20;;;;;;;4.07;3.55;;;;;;;36.71;39.73;99952.06;5058636;28;20188;-77
2023/09/17 09:22:46;;;;;;;5.90;3.42;;;;;;;36.19;41.92;99949.88;5055462;28;20225;-76
2023/09/17 09:25:15;;;;;;;10.45;3.20;;;;;;;31.74;58.10;99945.66;5052600;28;20196;-77
2023/09/17 09:27:41;;;;;;;3.10;2.78;;;;;;;31.91;60.36;99942.34;5062808;28;20257;-77
2023/09/17 09:30:11;;;;;;;4.63;3.05;;;;;;;33.78;54.16;99941.41;5045752;28;20648;-76
2023/09/17 09:32:37;;;;;;;4.35;3.28;;;;;;;36.46;42.58;99951.69;5069975;28;20187;-76
2023/09/17 09:35:03;;;;;;;5.57;2.70;;;;;;;37.76;37.48;99950.16;5064711;28;20177;-76
2023/09/17 09:37:29;;;;;;;4.40;2.85;;;;;;;37.39;36.91;99951.25;5047987;28;20276;-76
2023/09/17 09:39:54;;;;;;;5.15;3.50;;;;;;;33.65;48.80;99947.06;5058554;28;20656;-77
2023/09/17 09:42:22;;;;;;;3.47;2.90;;;;;;;36.35;40.45;99937.38;5034140;28;20731;-77
2023/09/17 09:44:50;;;;;;;4.15;3.30;;;;;;;36.74;38.71;99936.28;5038563;28;20631;-76
2023/09/17 09:47:16;;;;;;;3.88;3.00;;;;;;;37.75;37.63;99944.00;5052134;28;20190;-76
2023/09/17 09:49:43;;;;;;;5.00;3.40;;;;;;;38.49;34.39;99945.50;5075269;28;20184;-77
2023/09/17 09:52:11;;;;;;;4.47;3.00;;;;;;;39.16;35.28;99943.34;5062626;28;20232;-78
2023/09/17 09:54:37;;;;;;;5.13;3.80;;;;;;;39.25;33.03;99945.44;5054486;28;20189;-76
2023/09/17 09:57:06;;;;;;;3.30;2.90;;;;;;;36.57;36.59;99943.69;5055798;28;20181;-76
2023/09/17 09:59:33;;;;;;;8.27;3.80;;;;;;;31.98;55.31;99935.88;5055458;28;20185;-77
2023/09/17 10:02:01;;;;;;;6.47;3.58;;;;;;;35.14;47.34;99940.41;5031136;28;20225;-76
2023/09/17 10:04:26;;;;;;;5.75;5.25;;;;;;;36.10;42.53;99937.25;5051508;28;20201;-77
2023/09/17 10:06:52;;;;;;;6.32;4.30;;;;;;;34.77;48.07;99938.34;5070796;28;20204;-77
2023/09/17 10:09:18;;;;;;;5.60;3.95;;;;;;;35.16;44.45;99940.16;5035921;28;20214;-77
2023/09/17 10:11:43;;;;;;;4.38;3.97;;;;;;;36.02;42.34;99930.50;5038424;28;20233;-77
2023/09/17 10:14:08;;;;;;;7.22;3.80;;;;;;;33.82;49.76;99914.28;5034153;28;20221;-77
2023/09/17 10:16:36;;;;;;;5.70;3.80;;;;;;;33.42;55.23;99916.03;5032132;28;20249;-77
2023/09/17 10:19:06;;;;;;;5.93;4.03;;;;;;;35.60;43.14;99916.00;5035221;28;20178;-77
2023/09/17 10:21:37;;;;;;;5.55;3.88;;;;;;;37.59;39.70;99913.69;5026177;28;20241;-77
2023/09/17 10:24:03;;;;;;;4.85;3.13;;;;;;;35.64;42.31;99913.63;5033734;28;20198;-77
2023/09/17 10:26:32;;;;;;;5.10;3.28;;;;;;;35.18;44.57;99901.41;5035076;28;20178;-77
2023/09/17 10:29:00;;;;;;;5.55;3.40;;;;;;;31.00;62.15;99898.78;5035267;28;20581;-76
2023/09/17 10:31:25;;;;;;;4.85;3.50;;;;;;;28.74;84.04;99900.25;5042245;28;20217;-77
2023/09/17 10:33:52;;;;;;;5.68;3.10;;;;;;;27.77;91.73;99898.03;5033620;28;20597;-76
2023/09/17 10:36:18;;;;;;;6.10;3.67;;;;;;;28.38;94.59;99883.00;5033353;28;20248;-76
2023/09/17 10:38:46;;;;;;;10.27;3.65;;;;;;;28.22;91.28;99882.44;5045050;28;20189;-77
2023/09/17 10:41:12;;;;;;;7.85;3.85;;;;;;;28.05;96.21;99883.88;5053135;28;20224;-76
2023/09/17 10:43:39;;;;;;;8.40;3.90;;;;;;;28.07;95.92;99882.66;5035679;28;20381;-77
2023/09/17 10:46:08;;;;;;;9.40;4.13;;;;;;;28.22;96.41;99873.66;5030347;28;20559;-76
2023/09/17 10:48:34;;;;;;;6.97;3.45;;;;;;;27.57;98.83;99875.03;5034825;28;20580;-77
2023/09/17 10:51:00;;;;;;;6.18;4.03;;;;;;;27.05;97.37;99878.16;5030893;28;20229;-77
2023/09/17 10:53:26;;;;;;;7.47;4.25;;;;;;;27.54;94.55;99876.25;5032777;28;20273;-76
2023/09/17 10:55:59;;;;;;;5.97;3.72;;;;;;;27.46;95.66;99873.00;5033980;28;20665;-77
2023/09/17 10:58:29;;;;;;;8.15;4.45;;;;;;;27.43;95.11;99868.94;5032131;28;20189;-77
2023/09/17 11:00:56;;;;;;;10.15;4.10;;;;;;;27.50;94.04;99863.66;5037138;28;20572;-77
2023/09/17 11:03:24;;;;;;;5.18;4.13;;;;;;;26.99;99.85;99871.03;5052371;28;20207;-77
2023/09/17 11:05:52;;;;;;;6.68;4.05;;;;;;;26.98;100.00;99869.38;5052531;28;20204;-77
2023/09/17 11:08:18;;;;;;;5.97;4.38;;;;;;;26.67;98.97;99865.38;5053150;28;20243;-77
2023/09/17 11:10:43;;;;;;;7.45;4.15;;;;;;;26.78;100.00;99865.84;5036951;28;20586;-77
2023/09/17 11:13:13;;;;;;;7.60;4.60;;;;;;;26.81;100.00;99868.09;5051359;28;20185;-78
2023/09/17 11:15:41;;;;;;;7.50;4.22;;;;;;;26.53;100.00;99864.50;5053700;28;20189;-77
2023/09/17 11:18:07;;;;;;;4.95;4.40;;;;;;;27.13;98.98;99868.41;5052102;28;20193;-77